Time,TemperatureF,DewpointF,PressureIn,WindDirection,WindDirectionDegrees,WindSpeedMPH,WindSpeedGustMPH,Humidity,HourlyPrecipIn,Conditions,Clouds,dailyrainin,SoftwareType,DateUTC
2013-10-18 00:01:00,43.4,40.1,29.71,North,0,0.7,0.9,88,0.00,,,0.00,WUHU216HW,2013-10-18 04:01:00,
2013-10-18 00:06:00,43.6,40.6,29.71,NNE,23,1.8,1.8,89,0.00,,,0.00,WUHU216HW,2013-10-18 04:06:00,
2013-10-18 00:11:00,43.9,41.2,29.71,NNE,23,0.9,1.8,90,0.00,,,0.00,WUHU216HW,2013-10-18 04:11:00,
2013-10-18 00:16:00,44.6,42.2,29.70,NE,45,2.5,2.5,91,0.00,,,0.00,WUHU216HW,2013-10-18 04:16:00,
2013-10-18 00:21:00,45.0,42.6,29.70,NE,45,2.2,3.4,91,0.00,,,0.00,WUHU216HW,2013-10-18 04:21:00,
2013-10-18 00:26:00,45.4,42.9,29.70,ENE,68,2.5,3.4,91,0.00,,,0.00,WUHU216HW,2013-10-18 04:26:00,
2013-10-18 00:31:00,45.7,43.3,29.69,NE,45,1.8,2.9,91,0.00,,,0.00,WUHU216HW,2013-10-18 04:31:00,
2013-10-18 00:36:00,45.7,43.3,29.70,WNW,293,0.9,2.9,91,0.01,,,0.02,WUHU216HW,2013-10-18 04:36:00,
2013-10-18 00:41:00,45.7,43.6,29.69,WNW,293,0.0,1.8,92,0.02,,,0.03,WUHU216HW,2013-10-18 04:41:00,
2013-10-18 00:46:00,45.9,43.5,29.69,NNE,23,0.9,1.1,91,0.04,,,0.05,WUHU216HW,2013-10-18 04:46:00,
2013-10-18 00:51:00,45.7,43.3,29.68,East,90,0.7,1.6,91,0.05,,,0.05,WUHU216HW,2013-10-18 04:51:00,
2013-10-18 00:56:00,45.9,43.5,29.68,NE,45,0.0,1.6,91,0.06,,,0.07,WUHU216HW,2013-10-18 04:56:00,
2013-10-18 01:01:00,45.9,43.5,29.68,SW,225,1.3,1.6,91,0.06,,,0.07,WUHU216HW,2013-10-18 05:01:00,
2013-10-18 01:06:00,45.9,43.5,29.68,NW,315,1.1,1.8,91,0.07,,,0.07,WUHU216HW,2013-10-18 05:06:00,
2013-10-18 01:11:00,45.9,43.5,29.68,WNW,293,0.2,1.8,91,0.07,,,0.07,WUHU216HW,2013-10-18 05:11:00,
2013-10-18 01:16:00,45.9,43.5,29.68,WNW,293,0.4,1.1,91,0.08,,,0.09,WUHU216HW,2013-10-18 05:16:00,
2013-10-18 01:21:00,45.9,43.5,29.68,North,0,0.0,0.9,91,0.08,,,0.09,WUHU216HW,2013-10-18 05:21:00,
2013-10-18 01:26:00,45.9,43.5,29.67,NNE,23,1.1,1.1,91,0.08,,,0.09,WUHU216HW,2013-10-18 05:26:00,
2013-10-18 01:31:00,45.7,43.3,29.66,NE,45,2.5,2.5,91,0.09,,,0.10,WUHU216HW,2013-10-18 05:31:00,
2013-10-18 01:36:00,45.7,43.3,29.64,NE,45,0.7,3.1,91,0.07,,,0.10,WUHU216HW,2013-10-18 05:36:00,
2013-10-18 01:41:00,45.5,43.1,29.66,WSW,248,1.6,3.1,91,0.06,,,0.10,WUHU216HW,2013-10-18 05:41:00,
2013-10-18 01:46:00,45.7,43.3,29.66,WSW,248,2.2,3.4,91,0.06,,,0.11,WUHU216HW,2013-10-18 05:46:00,
2013-10-18 01:51:00,45.7,43.3,29.65,WSW,248,0.0,3.4,91,0.05,,,0.11,WUHU216HW,2013-10-18 05:51:00,
2013-10-18 01:56:00,45.7,43.3,29.65,NW,315,0.0,2.2,91,0.04,,,0.11,WUHU216HW,2013-10-18 05:56:00,
2013-10-18 02:01:00,45.7,43.3,29.65,WSW,248,0.0,1.3,91,0.04,,,0.11,WUHU216HW,2013-10-18 06:01:00,
2013-10-18 02:06:00,46.1,43.7,29.66,SSW,203,1.1,1.3,91,0.04,,,0.12,WUHU216HW,2013-10-18 06:06:00,
2013-10-18 02:11:00,46.1,43.7,29.65,SW,225,0.0,1.1,91,0.04,,,0.12,WUHU216HW,2013-10-18 06:11:00,
2013-10-18 02:16:00,46.3,43.8,29.64,ENE,68,1.6,1.6,91,0.03,,,0.12,WUHU216HW,2013-10-18 06:16:00,
2013-10-18 02:21:00,46.3,43.8,29.63,ENE,68,0.7,1.8,91,0.03,,,0.12,WUHU216HW,2013-10-18 06:21:00,
2013-10-18 02:26:00,46.3,43.8,29.63,North,0,1.3,1.8,91,0.03,,,0.12,WUHU216HW,2013-10-18 06:26:00,
2013-10-18 02:31:00,46.1,43.7,29.62,SW,225,1.8,2.7,91,0.03,,,0.13,WUHU216HW,2013-10-18 06:31:00,
2013-10-18 02:36:00,46.4,44.0,29.62,WSW,248,0.9,2.7,91,0.03,,,0.13,WUHU216HW,2013-10-18 06:36:00,
2013-10-18 02:41:00,46.6,44.2,29.61,NNE,23,1.1,2.7,91,0.02,,,0.13,WUHU216HW,2013-10-18 06:41:00,
2013-10-18 02:46:00,46.6,44.2,29.61,SW,225,1.1,2.2,91,0.03,,,0.14,WUHU216HW,2013-10-18 06:46:00,
2013-10-18 02:51:00,46.8,44.4,29.61,WSW,248,1.1,2.2,91,0.03,,,0.14,WUHU216HW,2013-10-18 06:51:00,
2013-10-18 02:56:00,47.0,44.6,29.61,West,270,0.0,1.8,91,0.03,,,0.14,WUHU216HW,2013-10-18 06:56:00,
2013-10-18 03:01:00,47.2,44.7,29.61,West,270,1.8,2.2,91,0.04,,,0.15,WUHU216HW,2013-10-18 07:01:00,
2013-10-18 03:06:00,47.3,44.9,29.61,NW,315,2.2,2.9,91,0.03,,,0.15,WUHU216HW,2013-10-18 07:06:00,
2013-10-18 03:11:00,47.7,45.3,29.61,NNW,338,0.4,2.9,91,0.04,,,0.16,WUHU216HW,2013-10-18 07:11:00,
2013-10-18 03:16:00,47.9,45.5,29.62,NNW,338,2.0,2.5,91,0.04,,,0.16,WUHU216HW,2013-10-18 07:16:00,
2013-10-18 03:21:00,47.9,45.5,29.61,ESE,113,0.2,2.5,91,0.05,,,0.17,WUHU216HW,2013-10-18 07:21:00,
2013-10-18 03:26:00,48.1,45.6,29.62,WNW,293,1.1,2.0,91,0.05,,,0.18,WUHU216HW,2013-10-18 07:26:00,
2013-10-18 03:31:00,48.1,45.6,29.63,WNW,293,3.4,3.4,91,0.06,,,0.19,WUHU216HW,2013-10-18 07:31:00,
2013-10-18 03:36:00,48.2,45.8,29.63,WNW,293,0.0,3.4,91,0.06,,,0.19,WUHU216HW,2013-10-18 07:36:00,
2013-10-18 03:41:00,48.6,46.5,29.57,East,90,9.4,9.4,92,0.07,,,0.20,WUHU216HW,2013-10-18 07:41:00,
2013-10-18 03:46:00,48.6,46.5,29.56,ESE,113,2.2,11.4,92,0.07,,,0.21,WUHU216HW,2013-10-18 07:46:00,
2013-10-18 03:51:00,48.4,46.3,29.58,WSW,248,0.9,11.4,92,0.08,,,0.22,WUHU216HW,2013-10-18 07:51:00,
2013-10-18 03:56:00,48.4,46.0,29.58,NW,315,1.1,3.4,91,0.08,,,0.23,WUHU216HW,2013-10-18 07:56:00,
2013-10-18 04:01:00,48.4,46.0,29.58,WSW,248,1.8,3.1,91,0.09,,,0.24,WUHU216HW,2013-10-18 08:01:00,
2013-10-18 04:06:00,48.4,46.0,29.58,WSW,248,1.1,3.1,91,0.10,,,0.25,WUHU216HW,2013-10-18 08:06:00,
2013-10-18 04:11:00,48.6,46.2,29.57,WNW,293,2.7,2.7,91,0.09,,,0.25,WUHU216HW,2013-10-18 08:11:00,
2013-10-18 04:16:00,48.6,46.2,29.57,SE,135,0.4,3.8,91,0.10,,,0.27,WUHU216HW,2013-10-18 08:16:00,
2013-10-18 04:21:00,48.6,46.2,29.56,WNW,293,0.4,3.8,91,0.10,,,0.27,WUHU216HW,2013-10-18 08:21:00,
2013-10-18 04:26:00,48.6,46.2,29.57,WSW,248,1.1,2.5,91,0.10,,,0.28,WUHU216HW,2013-10-18 08:26:00,
2013-10-18 04:31:00,48.6,46.2,29.56,SW,225,1.1,1.3,91,0.10,,,0.29,WUHU216HW,2013-10-18 08:31:00,
2013-10-18 04:36:00,48.8,46.3,29.56,West,270,1.1,1.3,91,0.09,,,0.29,WUHU216HW,2013-10-18 08:36:00,
2013-10-18 04:41:00,48.8,46.3,29.56,WNW,293,0.0,1.3,91,0.09,,,0.30,WUHU216HW,2013-10-18 08:41:00,
2013-10-18 04:46:00,49.0,46.4,29.56,South,180,2.5,2.5,91,0.10,,,0.31,WUHU216HW,2013-10-18 08:46:00,
2013-10-18 04:51:00,49.0,46.4,29.56,SW,225,0.4,2.5,91,0.10,,,0.32,WUHU216HW,2013-10-18 08:51:00,
2013-10-18 04:56:00,49.0,46.4,29.56,West,270,0.0,2.5,91,0.08,,,0.32,WUHU216HW,2013-10-18 08:56:00,
2013-10-18 05:01:00,49.0,46.4,29.55,WSW,248,0.0,0.4,91,0.09,,,0.33,WUHU216HW,2013-10-18 09:01:00,
2013-10-18 05:06:00,49.1,46.6,29.55,SW,225,0.0,1.6,91,0.09,,,0.34,WUHU216HW,2013-10-18 09:06:00,
2013-10-18 05:11:00,49.1,46.6,29.55,NW,315,0.7,1.6,91,0.08,,,0.34,WUHU216HW,2013-10-18 09:11:00,
2013-10-18 05:16:00,49.1,46.6,29.55,WNW,293,0.0,1.1,91,0.08,,,0.35,WUHU216HW,2013-10-18 09:16:00,
2013-10-18 05:21:00,49.1,46.6,29.55,SE,135,0.0,1.1,91,0.07,,,0.35,WUHU216HW,2013-10-18 09:21:00,
2013-10-18 05:26:00,49.1,46.6,29.55,West,270,1.3,1.3,91,0.08,,,0.36,WUHU216HW,2013-10-18 09:26:00,
2013-10-18 05:31:00,49.3,46.8,29.56,WNW,293,1.1,2.2,91,0.07,,,0.36,WUHU216HW,2013-10-18 09:31:00,
2013-10-18 05:36:00,49.3,46.8,29.56,WSW,248,3.8,3.8,91,0.07,,,0.37,WUHU216HW,2013-10-18 09:36:00,
2013-10-18 05:41:00,49.5,47.0,29.56,West,270,2.2,4.0,91,0.06,,,0.37,WUHU216HW,2013-10-18 09:41:00,
2013-10-18 05:46:00,49.5,47.0,29.57,West,270,2.2,4.7,91,0.06,,,0.37,WUHU216HW,2013-10-18 09:46:00,
2013-10-18 05:51:00,49.7,47.2,29.57,West,270,0.9,4.7,91,0.06,,,0.38,WUHU216HW,2013-10-18 09:51:00,
2013-10-18 05:56:00,49.9,47.3,29.58,SW,225,0.7,2.5,91,0.05,,,0.38,WUHU216HW,2013-10-18 09:56:00,
2013-10-18 06:01:00,49.7,47.2,29.58,SSW,203,1.3,2.2,91,0.06,,,0.39,WUHU216HW,2013-10-18 10:01:00,
2013-10-18 06:06:00,49.9,47.3,29.58,SSW,203,1.1,2.0,91,0.05,,,0.39,WUHU216HW,2013-10-18 10:06:00,
2013-10-18 06:11:00,50.0,47.4,29.58,SE,135,1.1,1.8,91,0.05,,,0.39,WUHU216HW,2013-10-18 10:11:00,
2013-10-18 06:16:00,50.0,47.4,29.58,ESE,113,1.3,1.8,91,0.05,,,0.40,WUHU216HW,2013-10-18 10:16:00,
2013-10-18 06:21:00,50.0,47.4,29.59,ESE,113,0.4,1.6,91,0.05,,,0.41,WUHU216HW,2013-10-18 10:21:00,
2013-10-18 06:26:00,50.0,47.4,29.59,SE,135,1.1,1.6,91,0.05,,,0.41,WUHU216HW,2013-10-18 10:26:00,
2013-10-18 06:31:00,50.0,47.4,29.59,ESE,113,1.1,1.8,91,0.05,,,0.41,WUHU216HW,2013-10-18 10:31:00,
2013-10-18 06:36:00,50.0,47.4,29.59,ENE,68,1.1,1.8,91,0.05,,,0.42,WUHU216HW,2013-10-18 10:36:00,
2013-10-18 06:41:00,50.0,47.4,29.59,ESE,113,2.2,2.2,91,0.05,,,0.42,WUHU216HW,2013-10-18 10:41:00,
2013-10-18 06:46:00,50.0,47.4,29.59,East,90,1.1,2.7,91,0.05,,,0.43,WUHU216HW,2013-10-18 10:46:00,
2013-10-18 06:51:00,50.0,47.4,29.59,SE,135,1.1,2.7,91,0.05,,,0.43,WUHU216HW,2013-10-18 10:51:00,
2013-10-18 06:56:00,50.0,47.4,29.60,SE,135,0.4,1.8,91,0.04,,,0.43,WUHU216HW,2013-10-18 10:56:00,
2013-10-18 07:01:00,50.0,47.4,29.60,ENE,68,0.7,1.8,91,0.05,,,0.44,WUHU216HW,2013-10-18 11:01:00,
2013-10-18 07:06:00,50.0,47.4,29.60,ESE,113,1.1,1.3,91,0.05,,,0.44,WUHU216HW,2013-10-18 11:06:00,
2013-10-18 07:11:00,50.0,47.4,29.60,SE,135,1.1,1.3,91,0.04,,,0.44,WUHU216HW,2013-10-18 11:11:00,
2013-10-18 07:16:00,50.0,47.4,29.60,SE,135,0.7,1.8,91,0.04,,,0.44,WUHU216HW,2013-10-18 11:16:00,
2013-10-18 07:21:00,50.2,47.6,29.60,ESE,113,2.7,2.7,91,0.03,,,0.44,WUHU216HW,2013-10-18 11:21:00,
2013-10-18 07:26:00,50.2,47.6,29.61,ENE,68,0.2,2.7,91,0.03,,,0.44,WUHU216HW,2013-10-18 11:26:00,
2013-10-18 07:31:00,50.2,47.6,29.61,South,180,1.6,2.2,91,0.03,,,0.44,WUHU216HW,2013-10-18 11:31:00,
2013-10-18 07:36:00,50.4,47.8,29.61,South,180,4.7,5.4,91,0.03,,,0.45,WUHU216HW,2013-10-18 11:36:00,
2013-10-18 07:41:00,50.4,47.8,29.61,South,180,5.1,6.7,91,0.02,,,0.45,WUHU216HW,2013-10-18 11:41:00,
2013-10-18 07:46:00,50.4,47.8,29.61,SSE,158,8.7,9.2,91,0.02,,,0.45,WUHU216HW,2013-10-18 11:46:00,
2013-10-18 07:51:00,50.6,48.0,29.61,SSE,158,3.1,9.2,91,0.02,,,0.45,WUHU216HW,2013-10-18 11:51:00,
2013-10-18 07:56:00,50.8,48.2,29.62,SSE,158,5.4,8.7,91,0.01,,,0.45,WUHU216HW,2013-10-18 11:56:00,
2013-10-18 08:01:00,50.8,48.2,29.61,SSE,158,4.0,7.4,91,0.01,,,0.45,WUHU216HW,2013-10-18 12:01:00,
2013-10-18 08:06:00,50.8,48.2,29.62,SSE,158,6.3,7.4,91,0.01,,,0.45,WUHU216HW,2013-10-18 12:06:00,
2013-10-18 08:11:00,50.9,48.3,29.62,SSE,158,6.3,8.9,91,0.01,,,0.45,WUHU216HW,2013-10-18 12:11:00,
2013-10-18 08:16:00,50.9,48.3,29.62,South,180,6.7,10.1,91,0.01,,,0.45,WUHU216HW,2013-10-18 12:16:00,
2013-10-18 08:21:00,50.9,48.3,29.62,SSE,158,6.0,10.5,91,0.01,,,0.45,WUHU216HW,2013-10-18 12:21:00,
2013-10-18 08:26:00,51.5,48.9,29.63,SSE,158,7.4,10.5,91,0.01,,,0.45,WUHU216HW,2013-10-18 12:26:00,
2013-10-18 08:31:00,51.5,48.9,29.63,SSE,158,7.8,10.3,91,0.01,,,0.45,WUHU216HW,2013-10-18 12:31:00,
2013-10-18 08:36:00,51.5,48.9,29.63,SE,135,4.7,9.2,91,0.00,,,0.45,WUHU216HW,2013-10-18 12:36:00,
2013-10-18 08:41:00,51.7,49.1,29.64,South,180,7.2,9.2,91,0.00,,,0.45,WUHU216HW,2013-10-18 12:41:00,
2013-10-18 08:46:00,51.7,49.1,29.64,South,180,4.9,9.2,91,0.00,,,0.45,WUHU216HW,2013-10-18 12:46:00,
2013-10-18 08:51:00,51.7,49.1,29.64,SSW,203,2.5,8.5,91,0.00,,,0.45,WUHU216HW,2013-10-18 12:51:00,
2013-10-18 08:56:00,51.8,49.2,29.64,SSW,203,2.0,6.0,91,0.00,,,0.45,WUHU216HW,2013-10-18 12:56:00,
2013-10-18 09:01:00,51.8,49.2,29.64,SSW,203,0.0,4.3,91,0.00,,,0.45,WUHU216HW,2013-10-18 13:01:00,
2013-10-18 09:06:00,52.2,49.6,29.64,SE,135,4.5,4.5,91,0.00,,,0.45,WUHU216HW,2013-10-18 13:06:00,
2013-10-18 09:11:00,52.4,49.8,29.65,West,270,2.5,5.1,91,0.00,,,0.45,WUHU216HW,2013-10-18 13:11:00,
2013-10-18 09:16:00,52.9,50.3,29.65,SW,225,2.2,5.1,91,0.00,,,0.45,WUHU216HW,2013-10-18 13:16:00,
2013-10-18 09:21:00,53.3,50.4,29.65,WSW,248,3.8,6.0,90,0.00,,,0.45,WUHU216HW,2013-10-18 13:21:00,
2013-10-18 09:26:00,53.6,50.1,29.65,SW,225,1.1,6.0,88,0.00,,,0.45,WUHU216HW,2013-10-18 13:26:00,
2013-10-18 09:31:00,54.0,49.9,29.65,WSW,248,1.8,5.4,86,0.00,,,0.45,WUHU216HW,2013-10-18 13:31:00,
2013-10-18 09:36:00,54.2,50.0,29.65,SW,225,0.9,5.4,86,0.00,,,0.45,WUHU216HW,2013-10-18 13:36:00,
2013-10-18 09:41:00,54.2,50.0,29.65,WSW,248,2.7,3.8,86,0.00,,,0.45,WUHU216HW,2013-10-18 13:41:00,
2013-10-18 09:46:00,54.4,49.6,29.65,WSW,248,3.4,4.3,84,0.00,,,0.45,WUHU216HW,2013-10-18 13:46:00,
2013-10-18 09:51:00,54.4,49.6,29.65,West,270,0.9,6.7,84,0.00,,,0.45,WUHU216HW,2013-10-18 13:51:00,
2013-10-18 09:56:00,54.4,49.3,29.65,SW,225,2.2,6.7,83,0.00,,,0.45,WUHU216HW,2013-10-18 13:56:00,
2013-10-18 10:01:00,54.4,49.3,29.65,SW,225,3.8,6.9,83,0.00,,,0.45,WUHU216HW,2013-10-18 14:01:00,
2013-10-18 10:06:00,54.4,49.3,29.65,WSW,248,2.9,6.9,83,0.00,,,0.45,WUHU216HW,2013-10-18 14:06:00,
2013-10-18 10:11:00,54.7,49.6,29.65,SSW,203,3.1,5.6,83,0.00,,,0.45,WUHU216HW,2013-10-18 14:11:00,
2013-10-18 10:16:00,54.7,49.6,29.65,SSW,203,3.8,7.4,83,0.00,,,0.45,WUHU216HW,2013-10-18 14:16:00,
2013-10-18 10:21:00,55.3,50.1,29.65,SSW,203,6.9,7.4,83,0.00,,,0.45,WUHU216HW,2013-10-18 14:21:00,
2013-10-18 10:26:00,55.6,49.9,29.66,SSW,203,2.7,9.8,81,0.00,,,0.45,WUHU216HW,2013-10-18 14:26:00,
2013-10-18 10:31:00,55.8,50.1,29.66,West,270,4.5,9.8,81,0.00,,,0.45,WUHU216HW,2013-10-18 14:31:00,
2013-10-18 10:36:00,55.8,49.7,29.66,SSW,203,2.2,8.5,80,0.00,,,0.45,WUHU216HW,2013-10-18 14:36:00,
2013-10-18 10:41:00,55.6,49.5,29.65,WSW,248,0.7,8.5,80,0.00,,,0.45,WUHU216HW,2013-10-18 14:41:00,
2013-10-18 10:46:00,55.8,49.7,29.66,WSW,248,3.1,6.9,80,0.00,,,0.45,WUHU216HW,2013-10-18 14:46:00,
2013-10-18 10:51:00,56.0,49.9,29.66,WNW,293,1.8,6.9,80,0.00,,,0.45,WUHU216HW,2013-10-18 14:51:00,
2013-10-18 10:56:00,56.2,49.7,29.65,WSW,248,3.4,10.1,79,0.00,,,0.45,WUHU216HW,2013-10-18 14:56:00,
2013-10-18 11:01:00,56.2,49.3,29.65,SW,225,1.3,10.1,78,0.00,,,0.45,WUHU216HW,2013-10-18 15:01:00,
2013-10-18 11:06:00,56.5,49.7,29.66,West,270,2.7,8.5,78,0.00,,,0.45,WUHU216HW,2013-10-18 15:06:00,
2013-10-18 11:11:00,56.5,49.0,29.66,NW,315,5.8,12.8,76,0.00,,,0.45,WUHU216HW,2013-10-18 15:11:00,
2013-10-18 11:16:00,56.5,49.3,29.66,West,270,4.0,12.8,77,0.00,,,0.45,WUHU216HW,2013-10-18 15:16:00,
2013-10-18 11:21:00,56.7,49.1,29.66,WNW,293,2.0,6.9,76,0.00,,,0.45,WUHU216HW,2013-10-18 15:21:00,
2013-10-18 11:26:00,57.2,49.3,29.66,South,180,1.8,6.0,75,0.00,,,0.45,WUHU216HW,2013-10-18 15:26:00,
2013-10-18 11:31:00,57.6,49.0,29.66,SW,225,6.3,7.8,73,0.00,,,0.45,WUHU216HW,2013-10-18 15:31:00,
2013-10-18 11:36:00,58.1,48.8,29.66,WSW,248,4.7,10.7,71,0.00,,,0.45,WUHU216HW,2013-10-18 15:36:00,
2013-10-18 11:41:00,58.7,49.0,29.66,SW,225,5.1,11.0,70,0.00,,,0.45,WUHU216HW,2013-10-18 15:41:00,
2013-10-18 11:46:00,58.9,48.3,29.66,WSW,248,5.8,11.0,68,0.00,,,0.45,WUHU216HW,2013-10-18 15:46:00,
2013-10-18 11:51:00,58.7,48.2,29.66,WNW,293,10.1,13.0,68,0.00,,,0.45,WUHU216HW,2013-10-18 15:51:00,
2013-10-18 11:56:00,59.4,48.4,29.66,WSW,248,7.8,13.0,67,0.00,,,0.45,WUHU216HW,2013-10-18 15:56:00,
2013-10-18 12:01:00,59.9,48.2,29.66,WNW,293,4.5,10.1,65,0.00,,,0.45,WUHU216HW,2013-10-18 16:01:00,
2013-10-18 12:06:00,60.1,48.3,29.66,WSW,248,6.0,15.0,65,0.00,,,0.45,WUHU216HW,2013-10-18 16:06:00,
2013-10-18 12:11:00,59.6,47.0,29.66,WSW,248,9.8,15.0,63,0.00,,,0.45,WUHU216HW,2013-10-18 16:11:00,
2013-10-18 12:16:00,59.9,46.9,29.66,SW,225,4.7,10.3,62,0.00,,,0.45,WUHU216HW,2013-10-18 16:16:00,
2013-10-18 12:21:00,59.8,47.2,29.66,SW,225,4.5,10.3,63,0.00,,,0.45,WUHU216HW,2013-10-18 16:21:00,
2013-10-18 12:26:00,59.4,46.8,29.66,WSW,248,5.6,8.5,63,0.00,,,0.45,WUHU216HW,2013-10-18 16:26:00,
2013-10-18 12:31:00,59.2,47.0,29.67,WSW,248,6.9,11.0,64,0.00,,,0.45,WUHU216HW,2013-10-18 16:31:00,
2013-10-18 12:36:00,59.4,47.2,29.67,WSW,248,7.8,11.0,64,0.00,,,0.45,WUHU216HW,2013-10-18 16:36:00,
2013-10-18 12:41:00,59.6,47.3,29.67,WSW,248,3.8,10.1,64,0.00,,,0.45,WUHU216HW,2013-10-18 16:41:00,
2013-10-18 12:46:00,59.4,47.2,29.67,West,270,4.0,7.6,64,0.00,,,0.45,WUHU216HW,2013-10-18 16:46:00,
2013-10-18 12:51:00,59.2,47.0,29.67,West,270,4.7,8.7,64,0.00,,,0.45,WUHU216HW,2013-10-18 16:51:00,
2013-10-18 12:56:00,59.0,47.3,29.67,West,270,4.9,9.2,65,0.00,,,0.45,WUHU216HW,2013-10-18 16:56:00,
2013-10-18 13:01:00,59.2,47.4,29.67,SW,225,1.8,9.2,65,0.00,,,0.45,WUHU216HW,2013-10-18 17:01:00,
2013-10-18 13:06:00,59.8,47.5,29.67,WSW,248,6.0,9.2,64,0.00,,,0.45,WUHU216HW,2013-10-18 17:06:00,
2013-10-18 13:11:00,60.1,48.3,29.67,North,0,3.4,6.5,65,0.00,,,0.45,WUHU216HW,2013-10-18 17:11:00,
2013-10-18 13:16:00,60.1,48.3,29.67,WSW,248,2.9,6.5,65,0.00,,,0.45,WUHU216HW,2013-10-18 17:16:00,
2013-10-18 13:21:00,59.6,47.3,29.66,SSW,203,1.8,4.7,64,0.00,,,0.45,WUHU216HW,2013-10-18 17:21:00,
2013-10-18 13:26:00,59.2,47.4,29.67,WSW,248,1.8,4.7,65,0.00,,,0.45,WUHU216HW,2013-10-18 17:26:00,
2013-10-18 13:31:00,59.2,47.9,29.66,West,270,2.5,4.0,66,0.00,,,0.45,WUHU216HW,2013-10-18 17:31:00,
2013-10-18 13:35:00,59.4,47.6,29.67,WSW,248,2.7,4.7,65,0.00,,,0.45,WUHU216HW,2013-10-18 17:35:00,
2013-10-18 13:40:00,59.8,47.5,29.67,SW,225,8.3,8.5,64,0.00,,,0.45,WUHU216HW,2013-10-18 17:40:00,
2013-10-18 13:45:00,60.1,47.5,29.67,WSW,248,5.8,11.2,63,0.00,,,0.45,WUHU216HW,2013-10-18 17:45:00,
2013-10-18 13:50:00,60.3,48.1,29.67,West,270,4.7,11.2,64,0.00,,,0.45,WUHU216HW,2013-10-18 17:50:00,
2013-10-18 13:55:00,59.9,47.4,29.68,NW,315,1.6,8.7,63,0.00,,,0.45,WUHU216HW,2013-10-18 17:55:00,
2013-10-18 14:00:00,59.4,46.8,29.68,West,270,8.7,8.7,63,0.00,,,0.45,WUHU216HW,2013-10-18 18:00:00,
2013-10-18 14:05:00,59.0,46.0,29.68,SW,225,5.8,12.8,62,0.00,,,0.45,WUHU216HW,2013-10-18 18:05:00,
2013-10-18 14:10:00,58.9,45.5,29.68,WSW,248,10.5,12.8,61,0.00,,,0.45,WUHU216HW,2013-10-18 18:10:00,
2013-10-18 14:15:00,58.9,44.6,29.68,WSW,248,10.7,10.7,59,0.00,,,0.45,WUHU216HW,2013-10-18 18:15:00,
2013-10-18 14:20:00,58.9,45.5,29.68,NW,315,7.6,10.7,61,0.00,,,0.45,WUHU216HW,2013-10-18 18:20:00,
2013-10-18 14:25:00,58.7,45.3,29.68,SE,135,3.1,10.5,61,0.00,,,0.45,WUHU216HW,2013-10-18 18:25:00,
2013-10-18 14:30:00,58.7,45.3,29.68,WNW,293,5.8,9.4,61,0.00,,,0.45,WUHU216HW,2013-10-18 18:30:00,
2013-10-18 14:35:00,58.3,45.4,29.68,SW,225,5.6,9.2,62,0.00,,,0.45,WUHU216HW,2013-10-18 18:35:00,
2013-10-18 14:40:00,58.3,45.7,29.68,WSW,248,1.8,6.3,63,0.00,,,0.45,WUHU216HW,2013-10-18 18:40:00,
2013-10-18 14:45:00,58.1,45.6,29.68,WSW,248,2.7,6.3,63,0.00,,,0.45,WUHU216HW,2013-10-18 18:45:00,
2013-10-18 14:50:00,58.1,45.6,29.69,West,270,3.1,10.7,63,0.00,,,0.45,WUHU216HW,2013-10-18 18:50:00,
2013-10-18 14:55:00,58.1,45.6,29.68,WSW,248,3.1,10.7,63,0.00,,,0.45,WUHU216HW,2013-10-18 18:55:00,
2013-10-18 15:00:00,58.1,45.2,29.68,SW,225,1.8,6.3,62,0.00,,,0.45,WUHU216HW,2013-10-18 19:00:00,
2013-10-18 15:05:00,58.7,45.3,29.68,SW,225,6.3,8.3,61,0.00,,,0.45,WUHU216HW,2013-10-18 19:05:00,
2013-10-18 15:10:00,59.4,46.4,29.69,SW,225,3.4,8.3,62,0.00,,,0.45,WUHU216HW,2013-10-18 19:10:00,
2013-10-18 15:15:00,59.0,45.6,29.68,West,270,2.5,8.5,61,0.00,,,0.45,WUHU216HW,2013-10-18 19:15:00,
2013-10-18 15:20:00,58.7,44.8,29.69,WSW,248,1.8,8.5,60,0.00,,,0.45,WUHU216HW,2013-10-18 19:20:00,
2013-10-18 15:25:00,58.3,44.9,29.69,North,0,3.4,6.5,61,0.00,,,0.45,WUHU216HW,2013-10-18 19:25:00,
2013-10-18 15:30:00,58.3,44.6,29.69,WNW,293,4.0,7.4,60,0.00,,,0.45,WUHU216HW,2013-10-18 19:30:00,
2013-10-18 15:35:00,58.3,44.9,29.69,SW,225,3.1,7.4,61,0.00,,,0.45,WUHU216HW,2013-10-18 19:35:00,
2013-10-18 15:40:00,58.3,44.1,29.69,WSW,248,2.9,9.2,59,0.00,,,0.45,WUHU216HW,2013-10-18 19:40:00,
2013-10-18 15:45:00,58.3,44.1,29.69,West,270,5.6,9.2,59,0.00,,,0.45,WUHU216HW,2013-10-18 19:45:00,
2013-10-18 15:50:00,58.3,44.6,29.70,SW,225,0.4,6.9,60,0.00,,,0.45,WUHU216HW,2013-10-18 19:50:00,
2013-10-18 15:55:00,58.1,43.9,29.70,WSW,248,2.0,9.4,59,0.00,,,0.45,WUHU216HW,2013-10-18 19:55:00,
2013-10-18 16:00:00,57.8,43.6,29.71,WNW,293,6.9,9.4,59,0.00,,,0.45,WUHU216HW,2013-10-18 20:00:00,
2013-10-18 16:05:00,57.6,43.4,29.71,WSW,248,3.4,8.7,59,0.00,,,0.45,WUHU216HW,2013-10-18 20:05:00,
2013-10-18 16:09:00,57.6,43.9,29.71,West,270,8.7,8.7,60,0.00,,,0.45,WUHU216HW,2013-10-18 20:09:00,
2013-10-18 16:15:00,57.6,43.4,29.71,WNW,293,5.4,9.2,59,0.00,,,0.45,WUHU216HW,2013-10-18 20:15:00,
2013-10-18 16:19:00,58.1,43.9,29.70,WSW,248,3.6,9.2,59,0.00,,,0.45,WUHU216HW,2013-10-18 20:19:00,
2013-10-18 16:25:00,58.7,44.4,29.71,NW,315,2.5,6.7,59,0.00,,,0.45,WUHU216HW,2013-10-18 20:25:00,
2013-10-18 16:29:00,59.0,44.3,29.71,WNW,293,3.8,6.7,58,0.00,,,0.45,WUHU216HW,2013-10-18 20:29:00,
2013-10-18 16:35:00,59.0,43.7,29.70,South,180,3.1,6.7,57,0.00,,,0.45,WUHU216HW,2013-10-18 20:35:00,
2013-10-18 16:39:00,58.9,43.7,29.71,NW,315,3.6,9.6,57,0.00,,,0.45,WUHU216HW,2013-10-18 20:39:00,
2013-10-18 16:44:00,58.7,43.9,29.70,NNW,338,3.8,9.6,58,0.00,,,0.45,WUHU216HW,2013-10-18 20:44:00,
2013-10-18 16:49:00,58.5,43.7,29.71,WSW,248,1.1,8.3,58,0.00,,,0.45,WUHU216HW,2013-10-18 20:49:00,
2013-10-18 16:55:00,58.5,43.7,29.71,West,270,1.1,8.7,58,0.00,,,0.45,WUHU216HW,2013-10-18 20:55:00,
2013-10-18 17:00:00,58.0,43.3,29.71,NNE,23,3.8,8.7,58,0.00,,,0.45,WUHU216HW,2013-10-18 21:00:00,
2013-10-18 17:04:00,57.6,42.5,29.71,West,270,3.6,6.9,57,0.00,,,0.45,WUHU216HW,2013-10-18 21:04:00,
2013-10-18 17:09:00,57.4,42.8,29.71,WSW,248,4.0,6.9,58,0.00,,,0.45,WUHU216HW,2013-10-18 21:09:00,
2013-10-18 17:14:00,57.8,43.6,29.71,NNW,338,4.0,6.9,59,0.00,,,0.45,WUHU216HW,2013-10-18 21:14:00,
2013-10-18 17:19:00,57.6,42.9,29.72,WSW,248,1.8,5.1,58,0.00,,,0.45,WUHU216HW,2013-10-18 21:19:00,
2013-10-18 17:25:00,57.2,43.1,29.72,NNW,338,1.3,5.1,59,0.00,,,0.45,WUHU216HW,2013-10-18 21:25:00,
2013-10-18 17:29:00,56.9,42.8,29.72,NNW,338,0.2,4.0,59,0.00,,,0.45,WUHU216HW,2013-10-18 21:29:00,
2013-10-18 17:35:00,56.5,42.8,29.72,NW,315,0.7,2.7,60,0.00,,,0.45,WUHU216HW,2013-10-18 21:35:00,
2013-10-18 17:40:00,56.2,42.9,29.72,WSW,248,0.0,2.7,61,0.00,,,0.45,WUHU216HW,2013-10-18 21:40:00,
2013-10-18 17:45:00,55.8,42.6,29.72,West,270,0.0,1.6,61,0.00,,,0.45,WUHU216HW,2013-10-18 21:45:00,
2013-10-18 17:49:00,55.3,42.4,29.72,West,270,0.0,1.1,62,0.00,,,0.45,WUHU216HW,2013-10-18 21:49:00,
2013-10-18 17:55:00,54.7,42.8,29.73,NNW,338,0.0,0.0,64,0.00,,,0.45,WUHU216HW,2013-10-18 21:55:00,
2013-10-18 18:00:00,54.2,42.2,29.73,North,0,1.3,1.3,64,0.00,,,0.45,WUHU216HW,2013-10-18 22:00:00,
2013-10-18 18:05:00,53.5,42.4,29.73,ESE,113,0.4,1.3,66,0.00,,,0.45,WUHU216HW,2013-10-18 22:05:00,
2013-10-18 18:10:00,52.9,41.9,29.73,SSW,203,0.2,2.5,66,0.00,,,0.45,WUHU216HW,2013-10-18 22:10:00,
2013-10-18 18:15:00,52.4,42.1,29.73,ESE,113,1.1,2.5,68,0.00,,,0.45,WUHU216HW,2013-10-18 22:15:00,
2013-10-18 18:20:00,52.0,42.2,29.73,SSW,203,0.2,1.6,69,0.00,,,0.45,WUHU216HW,2013-10-18 22:20:00,
2013-10-18 18:25:00,51.8,41.7,29.73,SW,225,2.2,4.0,68,0.00,,,0.45,WUHU216HW,2013-10-18 22:25:00,
2013-10-18 18:29:00,52.0,42.2,29.73,SSE,158,0.0,4.0,69,0.00,,,0.45,WUHU216HW,2013-10-18 22:29:00,
2013-10-18 18:34:00,51.8,41.7,29.73,WNW,293,0.4,2.2,68,0.00,,,0.45,WUHU216HW,2013-10-18 22:34:00,
2013-10-18 18:39:00,51.5,41.7,29.73,ENE,68,0.0,1.1,69,0.00,,,0.45,WUHU216HW,2013-10-18 22:39:00,
2013-10-18 18:44:00,50.9,41.6,29.74,NW,315,0.7,1.1,70,0.00,,,0.45,WUHU216HW,2013-10-18 22:44:00,
2013-10-18 18:49:00,50.8,41.4,29.74,SW,225,0.0,1.6,70,0.00,,,0.45,WUHU216HW,2013-10-18 22:49:00,
2013-10-18 18:54:00,50.8,41.4,29.74,WNW,293,0.4,1.6,70,0.00,,,0.45,WUHU216HW,2013-10-18 22:54:00,
2013-10-18 18:59:00,50.6,41.2,29.74,WNW,293,0.0,0.9,70,0.00,,,0.45,WUHU216HW,2013-10-18 22:59:00,
2013-10-18 19:04:00,50.4,41.4,29.74,East,90,0.9,0.9,71,0.00,,,0.45,WUHU216HW,2013-10-18 23:04:00,
2013-10-18 19:09:00,50.0,41.4,29.74,WNW,293,0.4,0.9,72,0.00,,,0.45,WUHU216HW,2013-10-18 23:09:00,
2013-10-18 19:14:00,49.9,41.2,29.74,NNW,338,0.0,2.5,72,0.00,,,0.45,WUHU216HW,2013-10-18 23:14:00,
2013-10-18 19:19:00,49.9,41.2,29.74,SSW,203,0.0,2.5,72,0.00,,,0.45,WUHU216HW,2013-10-18 23:19:00,
2013-10-18 19:24:00,49.7,41.3,29.74,NW,315,2.0,2.0,73,0.00,,,0.45,WUHU216HW,2013-10-18 23:24:00,
2013-10-18 19:29:00,49.5,41.5,29.74,NNW,338,0.4,2.5,74,0.00,,,0.45,WUHU216HW,2013-10-18 23:29:00,
2013-10-18 19:34:00,49.5,41.5,29.75,WNW,293,0.9,2.5,74,0.00,,,0.45,WUHU216HW,2013-10-18 23:34:00,
2013-10-18 19:39:00,49.7,41.7,29.75,WNW,293,0.0,0.9,74,0.00,,,0.45,WUHU216HW,2013-10-18 23:39:00,
2013-10-18 19:44:00,49.7,42.0,29.74,North,0,0.0,0.9,75,0.00,,,0.45,WUHU216HW,2013-10-18 23:44:00,
2013-10-18 19:49:00,49.7,42.0,29.75,WNW,293,0.4,0.4,75,0.00,,,0.45,WUHU216HW,2013-10-18 23:49:00,
2013-10-18 19:54:00,49.5,42.2,29.76,NW,315,0.4,1.1,76,0.00,,,0.45,WUHU216HW,2013-10-18 23:54:00,
2013-10-18 19:59:00,49.5,42.2,29.76,West,270,0.7,1.6,76,0.00,,,0.45,WUHU216HW,2013-10-18 23:59:00,
2013-10-18 20:04:00,49.7,42.4,29.75,ESE,113,0.4,1.6,76,0.00,,,0.45,WUHU216HW,2013-10-19 00:04:00,
2013-10-18 20:09:00,49.7,42.8,29.76,North,0,1.1,1.6,77,0.00,,,0.45,WUHU216HW,2013-10-19 00:09:00,
2013-10-18 20:14:00,49.5,42.6,29.76,WSW,248,0.4,1.6,77,0.00,,,0.45,WUHU216HW,2013-10-19 00:14:00,
2013-10-18 20:19:00,49.7,42.4,29.76,NW,315,0.4,2.0,76,0.00,,,0.45,WUHU216HW,2013-10-19 00:19:00,
2013-10-18 20:25:00,49.9,42.6,29.76,NW,315,0.9,2.0,76,0.00,,,0.45,WUHU216HW,2013-10-19 00:25:00,
2013-10-18 20:29:00,50.0,43.1,29.76,NNW,338,0.4,1.3,77,0.00,,,0.45,WUHU216HW,2013-10-19 00:29:00,
2013-10-18 20:34:00,50.0,43.1,29.76,NNW,338,0.7,1.3,77,0.00,,,0.45,WUHU216HW,2013-10-19 00:34:00,
2013-10-18 20:39:00,50.2,43.3,29.77,NNW,338,1.1,1.3,77,0.00,,,0.45,WUHU216HW,2013-10-19 00:39:00,
2013-10-18 20:44:00,50.2,43.6,29.77,ENE,68,1.8,1.8,78,0.00,,,0.45,WUHU216HW,2013-10-19 00:44:00,
2013-10-18 20:49:00,49.9,43.2,29.77,NW,315,1.1,2.0,78,0.00,,,0.45,WUHU216HW,2013-10-19 00:49:00,
2013-10-18 20:55:00,49.5,43.8,29.78,NNW,338,1.1,2.0,81,0.00,,,0.45,WUHU216HW,2013-10-19 00:55:00,
2013-10-18 20:59:00,49.3,43.4,29.79,SSE,158,0.0,1.8,80,0.00,,,0.45,WUHU216HW,2013-10-19 00:59:00,
2013-10-18 21:05:00,49.9,43.9,29.79,West,270,2.2,2.5,80,0.00,,,0.45,WUHU216HW,2013-10-19 01:05:00,
2013-10-18 21:10:00,50.0,43.7,29.79,WNW,293,0.2,2.5,79,0.00,,,0.45,WUHU216HW,2013-10-19 01:10:00,
2013-10-18 21:15:00,49.7,43.7,29.79,NE,45,2.9,2.9,80,0.00,,,0.45,WUHU216HW,2013-10-19 01:15:00,
2013-10-18 21:20:00,49.0,42.7,29.79,ENE,68,1.8,2.9,79,0.00,,,0.45,WUHU216HW,2013-10-19 01:20:00,
2013-10-18 21:25:00,48.4,42.5,29.80,NE,45,1.1,2.9,80,0.00,,,0.45,WUHU216HW,2013-10-19 01:25:00,
2013-10-18 21:30:00,47.9,42.3,29.80,ENE,68,0.9,1.8,81,0.00,,,0.45,WUHU216HW,2013-10-19 01:30:00,
2013-10-18 21:35:00,47.7,42.1,29.80,ENE,68,0.9,1.6,81,0.00,,,0.45,WUHU216HW,2013-10-19 01:35:00,
2013-10-18 21:40:00,47.5,42.3,29.80,NE,45,1.6,1.6,82,0.00,,,0.45,WUHU216HW,2013-10-19 01:40:00,
2013-10-18 21:45:00,47.2,41.7,29.80,SSE,158,0.0,2.5,81,0.00,,,0.45,WUHU216HW,2013-10-19 01:45:00,
2013-10-18 21:50:00,46.8,41.3,29.80,West,270,0.0,2.5,81,0.00,,,0.45,WUHU216HW,2013-10-19 01:50:00,
2013-10-18 21:55:00,46.6,41.1,29.81,East,90,0.4,1.8,81,0.00,,,0.45,WUHU216HW,2013-10-19 01:55:00,
2013-10-18 22:00:00,47.0,41.1,29.81,SW,225,2.0,4.7,80,0.00,,,0.45,WUHU216HW,2013-10-19 02:00:00,
2013-10-18 22:05:00,47.2,41.3,29.81,WNW,293,0.0,4.7,80,0.00,,,0.45,WUHU216HW,2013-10-19 02:05:00,
2013-10-18 22:09:00,47.3,41.1,29.81,ESE,113,0.2,1.6,79,0.00,,,0.45,WUHU216HW,2013-10-19 02:09:00,
2013-10-18 22:14:00,47.2,41.0,29.81,NW,315,1.1,4.0,79,0.00,,,0.45,WUHU216HW,2013-10-19 02:14:00,
2013-10-18 22:19:00,47.3,40.8,29.81,South,180,2.9,4.0,78,0.00,,,0.45,WUHU216HW,2013-10-19 02:19:00,
2013-10-18 22:25:00,47.3,40.8,29.81,SE,135,1.8,3.4,78,0.00,,,0.45,WUHU216HW,2013-10-19 02:25:00,
2013-10-18 22:29:00,47.5,40.6,29.81,SSE,158,2.0,3.4,77,0.00,,,0.45,WUHU216HW,2013-10-19 02:29:00,
2013-10-18 22:34:00,47.5,40.3,29.81,NE,45,0.0,2.2,76,0.00,,,0.45,WUHU216HW,2013-10-19 02:34:00,
2013-10-18 22:39:00,47.5,40.3,29.81,SE,135,1.3,2.2,76,0.00,,,0.45,WUHU216HW,2013-10-19 02:39:00,
2013-10-18 22:44:00,47.5,40.0,29.81,NE,45,0.0,1.8,75,0.00,,,0.45,WUHU216HW,2013-10-19 02:44:00,
2013-10-18 22:49:00,47.3,39.8,29.81,SE,135,1.3,1.3,75,0.00,,,0.45,WUHU216HW,2013-10-19 02:49:00,
2013-10-18 22:54:00,47.0,39.4,29.81,SSE,158,1.1,1.8,75,0.00,,,0.45,WUHU216HW,2013-10-19 02:54:00,
2013-10-18 22:59:00,46.6,39.5,29.81,SW,225,0.0,1.8,76,0.00,,,0.45,WUHU216HW,2013-10-19 02:59:00,
2013-10-18 23:04:00,46.3,39.2,29.81,SSE,158,0.4,1.8,76,0.00,,,0.45,WUHU216HW,2013-10-19 03:04:00,
2013-10-18 23:09:00,46.3,39.2,29.81,SSE,158,1.1,1.8,76,0.00,,,0.45,WUHU216HW,2013-10-19 03:09:00,
2013-10-18 23:14:00,46.1,39.0,29.81,WNW,293,1.1,3.4,76,0.00,,,0.45,WUHU216HW,2013-10-19 03:14:00,
2013-10-18 23:19:00,46.1,39.3,29.82,SW,225,1.6,3.4,77,0.00,,,0.45,WUHU216HW,2013-10-19 03:19:00,
2013-10-18 23:24:00,45.9,39.4,29.81,WSW,248,2.0,4.3,78,0.00,,,0.45,WUHU216HW,2013-10-19 03:24:00,
2013-10-18 23:29:00,45.7,39.2,29.81,NNW,338,0.4,4.3,78,0.00,,,0.45,WUHU216HW,2013-10-19 03:29:00,
2013-10-18 23:34:00,45.7,39.0,29.81,West,270,2.0,2.2,77,0.00,,,0.45,WUHU216HW,2013-10-19 03:34:00,
2013-10-18 23:39:00,45.5,38.8,29.81,NW,315,0.0,2.9,77,0.00,,,0.45,WUHU216HW,2013-10-19 03:39:00,
2013-10-18 23:44:00,45.2,39.1,29.81,North,0,1.1,2.9,79,0.00,,,0.45,WUHU216HW,2013-10-19 03:44:00,
2013-10-18 23:49:00,44.8,38.3,29.82,West,270,2.0,3.1,78,0.00,,,0.45,WUHU216HW,2013-10-19 03:49:00,
2013-10-18 23:54:00,44.6,38.5,29.82,WSW,248,1.3,4.0,79,0.00,,,0.45,WUHU216HW,2013-10-19 03:54:00,
2013-10-18 23:59:00,44.8,38.3,29.82,West,270,1.1,4.0,78,0.00,,,0.45,WUHU216HW,2013-10-19 03:59:00,